createdAt,value
2023-05-06T00:00:13.104Z,96793.19
2023-05-06T00:01:15.067Z,96788.13
2023-05-06T00:02:17.513Z,96785.84
2023-05-06T00:03:19.648Z,96788.72
2023-05-06T00:04:22.105Z,96783.03
2023-05-06T00:05:23.785Z,96784.16
2023-05-06T00:06:25.443Z,96783.75
2023-05-06T00:07:26.975Z,96781.91
2023-05-06T00:08:28.560Z,96794.44
2023-05-06T00:09:30.105Z,96784.19
2023-05-06T00:10:31.877Z,96781.56
2023-05-06T00:11:33.736Z,96785.66
2023-05-06T00:12:35.307Z,96780.88
2023-05-06T00:13:38.136Z,96787.63
2023-05-06T00:14:39.889Z,96782.44
2023-05-06T00:15:41.593Z,96787.88
2023-05-06T00:16:43.245Z,96787.56
2023-05-06T00:17:44.929Z,96782.00
2023-05-06T00:18:46.505Z,96787.56
2023-05-06T00:19:48.145Z,96787.47
2023-05-06T00:20:49.797Z,96782.50
2023-05-06T00:21:51.397Z,96778.03
2023-05-06T00:22:53.075Z,96777.25
2023-05-06T00:23:54.664Z,96779.94
2023-05-06T00:24:56.196Z,96780.25
2023-05-06T00:25:57.742Z,96780.25
2023-05-06T00:26:59.282Z,96783.41
2023-05-06T00:28:00.980Z,96786.34
2023-05-06T00:29:02.536Z,96785.03
2023-05-06T00:30:04.729Z,96782.78
2023-05-06T00:31:06.310Z,96774.03
2023-05-06T00:32:07.961Z,96783.47
2023-05-06T00:33:09.562Z,96783.13
2023-05-06T00:34:11.401Z,96786.59
2023-05-06T00:35:12.985Z,96779.75
2023-05-06T00:36:14.685Z,96785.56
2023-05-06T00:37:16.497Z,96781.47
2023-05-06T00:38:19.551Z,96782.34
2023-05-06T00:39:21.273Z,96781.66
2023-05-06T00:40:22.996Z,96780.19
2023-05-06T00:41:24.613Z,96778.69
2023-05-06T00:42:26.222Z,96785.28
2023-05-06T00:43:27.736Z,96782.72
2023-05-06T00:44:30.018Z,96784.69
2023-05-06T00:45:31.795Z,96773.81
2023-05-06T00:46:33.817Z,96782.44
2023-05-06T00:47:35.741Z,96783.28
2023-05-06T00:48:37.930Z,96778.50
2023-05-06T00:49:39.672Z,96782.09
2023-05-06T00:50:41.442Z,96781.66
2023-05-06T00:51:43.052Z,96770.03
2023-05-06T00:52:45.346Z,96779.28
2023-05-06T00:53:47.027Z,96771.91
2023-05-06T00:54:49.474Z,96781.72
2023-05-06T00:55:51.344Z,96782.63
2023-05-06T00:56:53.733Z,96781.16
2023-05-06T00:57:55.429Z,96782.97
2023-05-06T00:58:57.717Z,96778.00
2023-05-06T00:59:59.299Z,96773.56
2023-05-06T01:01:01.924Z,96771.22
2023-05-06T01:02:03.682Z,96769.03
2023-05-06T01:03:05.834Z,96771.63
2023-05-06T01:04:08.760Z,96768.38
2023-05-06T01:05:10.954Z,96768.53
2023-05-06T01:06:24.298Z,96775.59
2023-05-06T01:07:53.783Z,96769.56
2023-05-06T01:09:06.054Z,96774.53
2023-05-06T01:10:20.511Z,96770.03
2023-05-06T01:11:38.658Z,96767.59
2023-05-06T01:12:51.849Z,96770.44
2023-05-06T01:14:08.307Z,96770.69
2023-05-06T01:15:17.270Z,96775.59
2023-05-06T01:16:22.884Z,96765.53
2023-05-06T01:17:28.337Z,96774.69
2023-05-06T01:18:32.662Z,96766.75
2023-05-06T01:19:42.212Z,96762.97
2023-05-06T01:20:52.784Z,96764.22
2023-05-06T01:21:56.286Z,96764.97
2023-05-06T01:22:58.100Z,96766.00
2023-05-06T01:24:00.048Z,96770.31
2023-05-06T01:25:01.806Z,96765.06
2023-05-06T01:26:03.342Z,96771.00
2023-05-06T01:27:05.138Z,96771.69
2023-05-06T01:28:10.475Z,96776.38
2023-05-06T01:29:12.154Z,96773.25
2023-05-06T01:30:16.421Z,96775.94
2023-05-06T01:31:25.768Z,96775.22
2023-05-06T01:32:41.645Z,96766.38
2023-05-06T01:33:43.364Z,96775.44
2023-05-06T01:35:07.342Z,96775.91
2023-05-06T01:36:38.893Z,96781.34
2023-05-06T01:38:14.094Z,96761.78
2023-05-06T01:39:24.455Z,96762.78
2023-05-06T01:40:28.402Z,96772.19
2023-05-06T01:41:34.019Z,96773.00
2023-05-06T01:42:38.997Z,96767.88
2023-05-06T01:43:43.034Z,96770.66
2023-05-06T01:44:44.873Z,96769.00
2023-05-06T01:45:53.226Z,96768.09
2023-05-06T01:46:56.386Z,96758.16
2023-05-06T01:47:59.327Z,96768.22
2023-05-06T01:49:04.840Z,96770.56
2023-05-06T01:50:06.956Z,96769.25
2023-05-06T01:51:08.667Z,96772.13
2023-05-06T01:52:10.214Z,96768.91
2023-05-06T01:53:11.787Z,96769.00
2023-05-06T01:54:13.469Z,96769.13
2023-05-06T01:55:15.006Z,96772.13
2023-05-06T01:56:16.994Z,96775.91
2023-05-06T01:57:18.584Z,96779.63
2023-05-06T01:58:20.396Z,96781.19
2023-05-06T01:59:22.035Z,96768.41
2023-05-06T02:00:25.006Z,96776.38
2023-05-06T02:01:26.767Z,96776.22
2023-05-06T02:02:28.514Z,96770.72
2023-05-06T02:03:30.466Z,96765.56
2023-05-06T02:04:32.352Z,96768.44
2023-05-06T02:05:34.003Z,96767.25
2023-05-06T02:06:35.693Z,96769.94
2023-05-06T02:07:37.228Z,96766.50
2023-05-06T02:08:40.285Z,96762.03
2023-05-06T02:09:41.813Z,96768.72
2023-05-06T02:10:43.386Z,96757.06
2023-05-06T02:11:44.986Z,96765.09
2023-05-06T02:12:46.552Z,96756.13
2023-05-06T02:13:48.166Z,96761.72
2023-05-06T02:14:49.725Z,96755.72
2023-05-06T02:15:54.784Z,96764.47
2023-05-06T02:16:56.503Z,96765.34
2023-05-06T02:17:59.950Z,96756.88
2023-05-06T02:19:01.664Z,96768.41
2023-05-06T02:20:03.728Z,96767.63
2023-05-06T02:21:05.270Z,96766.03
2023-05-06T02:22:06.984Z,96764.38
2023-05-06T02:23:08.592Z,96763.13
2023-05-06T02:24:10.190Z,96767.63
2023-05-06T02:25:11.825Z,96763.59
2023-05-06T02:26:13.404Z,96773.22
2023-05-06T02:27:14.920Z,96765.81
2023-05-06T02:28:16.444Z,96766.94
2023-05-06T02:29:18.027Z,96767.63
2023-05-06T02:30:19.603Z,96759.56
2023-05-06T02:31:21.225Z,96771.00
2023-05-06T02:32:22.878Z,96763.19
2023-05-06T02:33:24.959Z,96766.97
2023-05-06T02:34:26.507Z,96772.13
2023-05-06T02:35:28.016Z,96765.41
2023-05-06T02:36:29.652Z,96771.22
2023-05-06T02:37:31.263Z,96772.56
2023-05-06T02:38:32.804Z,96776.50
2023-05-06T02:39:34.357Z,96778.19
2023-05-06T02:40:35.934Z,96771.47
2023-05-06T02:41:37.434Z,96776.41
2023-05-06T02:42:39.066Z,96780.41
2023-05-06T02:43:40.712Z,96779.84
2023-05-06T02:44:42.497Z,96782.53
2023-05-06T02:45:44.069Z,96790.59
2023-05-06T02:46:45.699Z,96779.16
2023-05-06T02:47:47.294Z,96780.09
2023-05-06T02:48:48.940Z,96778.16
2023-05-06T02:49:50.684Z,96777.94
2023-05-06T02:50:52.406Z,96781.09
2023-05-06T02:51:53.965Z,96781.88
2023-05-06T02:52:55.785Z,96786.78
2023-05-06T02:53:57.361Z,96781.09
2023-05-06T02:54:59.161Z,96781.97
2023-05-06T02:56:00.730Z,96782.75
2023-05-06T02:57:02.368Z,96784.09
2023-05-06T02:58:03.895Z,96791.13
2023-05-06T02:59:05.915Z,96782.06
2023-05-06T03:00:11.011Z,96788.31
2023-05-06T03:01:12.632Z,96791.38
2023-05-06T03:02:14.253Z,96788.69
2023-05-06T03:03:17.933Z,96795.06
2023-05-06T03:04:19.515Z,96792.72
2023-05-06T03:05:21.263Z,96789.81
2023-05-06T03:06:22.787Z,96791.16
2023-05-06T03:07:24.331Z,96794.25
2023-05-06T03:08:25.876Z,96789.91
2023-05-06T03:09:27.460Z,96796.72
2023-05-06T03:10:29.014Z,96795.84
2023-05-06T03:11:31.570Z,96796.38
2023-05-06T03:12:33.177Z,96799.19
2023-05-06T03:13:34.804Z,96797.38
2023-05-06T03:14:36.370Z,96792.47
2023-05-06T03:15:37.913Z,96796.69
2023-05-06T03:16:39.551Z,96798.72
2023-05-06T03:17:41.170Z,96793.81
2023-05-06T03:18:42.718Z,96791.59
2023-05-06T03:19:44.298Z,96798.28
2023-05-06T03:20:48.280Z,96789.81
2023-05-06T03:21:49.882Z,96795.28
2023-05-06T03:22:51.714Z,96804.69
2023-05-06T03:23:53.220Z,96796.81
2023-05-06T03:24:54.775Z,96797.38
2023-05-06T03:25:56.291Z,96803.44
2023-05-06T03:26:58.527Z,96795.16
2023-05-06T03:28:00.345Z,96803.41
2023-05-06T03:29:01.947Z,96802.94
2023-05-06T03:30:05.029Z,96794.66
2023-05-06T03:31:06.699Z,96799.38
2023-05-06T03:32:08.365Z,96800.91
2023-05-06T03:33:10.028Z,96799.00
2023-05-06T03:34:11.569Z,96801.38
2023-05-06T03:35:13.229Z,96805.94
2023-05-06T03:36:14.793Z,96804.06
2023-05-06T03:37:16.355Z,96801.38
2023-05-06T03:38:17.879Z,96799.59
2023-05-06T03:39:19.428Z,96804.28
2023-05-06T03:40:21.061Z,96809.34
2023-05-06T03:41:24.451Z,96814.84
2023-05-06T03:42:26.072Z,96812.56
2023-05-06T03:43:27.643Z,96813.72
2023-05-06T03:44:29.263Z,96807.22
2023-05-06T03:45:30.916Z,96812.25
2023-05-06T03:46:32.856Z,96812.16
2023-05-06T03:47:34.590Z,96807.66
2023-05-06T03:48:36.194Z,96803.88
2023-05-06T03:49:37.781Z,96806.56
2023-05-06T03:50:39.481Z,96810.03
2023-05-06T03:51:41.289Z,96809.69
2023-05-06T03:52:42.960Z,96801.97
2023-05-06T03:53:44.775Z,96810.81
2023-05-06T03:54:46.321Z,96814.59
2023-05-06T03:55:48.191Z,96810.59
2023-05-06T03:56:49.748Z,96820.88
2023-05-06T03:57:51.323Z,96819.09
2023-05-06T03:58:54.346Z,96824.56
2023-05-06T03:59:56.066Z,96826.47
2023-05-06T04:01:00.064Z,96819.09
2023-05-06T04:02:01.747Z,96821.31
2023-05-06T04:03:03.553Z,96824.22
2023-05-06T04:04:05.397Z,96820.41
2023-05-06T04:05:07.714Z,96822.63
2023-05-06T04:06:09.468Z,96829.63
2023-05-06T04:07:11.078Z,96831.91
2023-05-06T04:08:12.640Z,96840.88
2023-05-06T04:09:14.183Z,96838.94
2023-05-06T04:10:15.884Z,96842.38
2023-05-06T04:11:17.457Z,96840.88
2023-05-06T04:12:19.076Z,96846.69
2023-05-06T04:13:20.841Z,96841.31
2023-05-06T04:14:22.523Z,96839.34
2023-05-06T04:15:24.199Z,96838.31
2023-05-06T04:16:26.563Z,96839.34
2023-05-06T04:17:28.293Z,96840.72
2023-05-06T04:18:30.594Z,96839.72
2023-05-06T04:19:33.583Z,96841.88
2023-05-06T04:20:35.131Z,96840.69
2023-05-06T04:21:36.737Z,96843.84
2023-05-06T04:22:38.772Z,96844.09
2023-05-06T04:23:41.565Z,96846.56
2023-05-06T04:24:45.723Z,96850.88
2023-05-06T04:25:50.534Z,96845.19
2023-05-06T04:26:52.066Z,96850.59
2023-05-06T04:27:53.640Z,96849.91
2023-05-06T04:28:55.877Z,96843.44
2023-05-06T04:29:57.810Z,96842.91
2023-05-06T04:30:59.384Z,96852.09
2023-05-06T04:32:01.273Z,96841.00
2023-05-06T04:33:04.164Z,96841.91
2023-05-06T04:34:05.797Z,96842.56
2023-05-06T04:35:08.131Z,96837.31
2023-05-06T04:36:09.825Z,96844.56
2023-05-06T04:37:11.392Z,96844.00
2023-05-06T04:38:14.962Z,96841.19
2023-05-06T04:39:18.115Z,96846.22
2023-05-06T04:40:19.812Z,96851.41
2023-05-06T04:41:22.239Z,96850.59
2023-05-06T04:42:23.912Z,96849.97
2023-05-06T04:43:28.296Z,96846.97
2023-05-06T04:44:29.895Z,96854.81
2023-05-06T04:45:32.561Z,96843.81
2023-05-06T04:46:34.153Z,96847.22
2023-05-06T04:47:36.078Z,96854.63
2023-05-06T04:48:38.036Z,96847.56
2023-05-06T04:49:40.009Z,96850.94
2023-05-06T04:50:41.553Z,96849.88
2023-05-06T04:51:43.096Z,96850.91
2023-05-06T04:52:44.646Z,96851.91
2023-05-06T04:53:46.773Z,96846.03
2023-05-06T04:54:48.359Z,96851.03
2023-05-06T04:55:49.882Z,96850.81
2023-05-06T04:56:51.435Z,96849.13
2023-05-06T04:57:52.963Z,96850.28
2023-05-06T04:58:54.517Z,96852.94
2023-05-06T04:59:56.023Z,96847.50
2023-05-06T05:00:58.061Z,96857.38
2023-05-06T05:01:59.699Z,96855.16
2023-05-06T05:03:02.196Z,96842.97
2023-05-06T05:04:03.949Z,96849.38
2023-05-06T05:05:05.917Z,96848.88
2023-05-06T05:06:07.629Z,96849.53
2023-05-06T05:07:09.266Z,96843.38
2023-05-06T05:08:13.304Z,96844.78
2023-05-06T05:09:14.937Z,96846.66
2023-05-06T05:10:16.580Z,96845.97
2023-05-06T05:11:18.090Z,96844.56
2023-05-06T05:12:19.645Z,96849.31
2023-05-06T05:13:21.585Z,96853.38
2023-05-06T05:14:23.173Z,96852.72
2023-05-06T05:15:25.228Z,96851.34
2023-05-06T05:16:26.933Z,96853.72
2023-05-06T05:17:28.771Z,96856.22
2023-05-06T05:18:30.283Z,96846.19
2023-05-06T05:19:31.841Z,96852.53
2023-05-06T05:20:33.376Z,96852.25
2023-05-06T05:21:35.200Z,96843.56
2023-05-06T05:22:37.304Z,96845.19
2023-05-06T05:23:38.818Z,96845.28
2023-05-06T05:24:40.483Z,96846.09
2023-05-06T05:25:42.025Z,96848.44
2023-05-06T05:26:43.626Z,96846.28
2023-05-06T05:27:45.418Z,96851.78
2023-05-06T05:28:47.020Z,96852.31
2023-05-06T05:29:48.827Z,96846.56
2023-05-06T05:30:50.550Z,96849.34
2023-05-06T05:31:52.180Z,96845.00
2023-05-06T05:32:53.871Z,96844.25
2023-05-06T05:33:55.500Z,96841.06
2023-05-06T05:34:57.306Z,96840.97
2023-05-06T05:35:58.968Z,96847.78
2023-05-06T05:37:00.589Z,96844.59
2023-05-06T05:38:02.151Z,96845.47
2023-05-06T05:39:03.988Z,96841.75
2023-05-06T05:40:06.408Z,96836.06
2023-05-06T05:41:07.970Z,96842.00
2023-05-06T05:42:09.562Z,96839.38
2023-05-06T05:43:11.198Z,96838.63
2023-05-06T05:44:12.739Z,96835.97
2023-05-06T05:45:14.404Z,96843.03
2023-05-06T05:46:16.877Z,96833.00
2023-05-06T05:47:18.553Z,96843.53
2023-05-06T05:48:20.144Z,96845.53
2023-05-06T05:49:21.742Z,96843.66
2023-05-06T05:50:23.479Z,96838.25
2023-05-06T05:51:25.073Z,96841.00
2023-05-06T05:52:26.743Z,96831.69
2023-05-06T05:53:28.633Z,96833.88
2023-05-06T05:54:30.202Z,96836.94
2023-05-06T05:55:32.098Z,96835.38
2023-05-06T05:56:33.653Z,96837.78
2023-05-06T05:57:35.436Z,96837.06
2023-05-06T05:58:36.983Z,96841.78
2023-05-06T05:59:38.522Z,96834.41
2023-05-06T06:00:40.149Z,96840.22
2023-05-06T06:01:41.684Z,96840.16
2023-05-06T06:02:43.291Z,96834.31
2023-05-06T06:03:45.029Z,96838.63
2023-05-06T06:04:46.736Z,96839.47
2023-05-06T06:05:49.485Z,96838.34
2023-05-06T06:06:51.490Z,96834.09
2023-05-06T06:07:53.104Z,96834.84
2023-05-06T06:08:55.122Z,96834.88
2023-05-06T06:09:56.682Z,96827.91
2023-05-06T06:10:58.203Z,96831.00
2023-05-06T06:11:59.764Z,96828.28
2023-05-06T06:13:01.400Z,96824.41
2023-05-06T06:14:02.960Z,96816.25
2023-05-06T06:15:04.758Z,96817.00
2023-05-06T06:16:06.775Z,96827.13
2023-05-06T06:17:08.421Z,96831.78
2023-05-06T06:18:10.162Z,96827.84
2023-05-06T06:19:11.793Z,96820.06
2023-05-06T06:20:13.782Z,96831.00
2023-05-06T06:21:15.354Z,96832.16
2023-05-06T06:22:17.132Z,96827.09
2023-05-06T06:23:21.457Z,96832.53
2023-05-06T06:24:22.970Z,96823.97
2023-05-06T06:25:24.587Z,96827.06
2023-05-06T06:26:26.617Z,96821.91
2023-05-06T06:27:28.653Z,96831.59
2023-05-06T06:28:30.382Z,96828.06
2023-05-06T06:29:31.901Z,96825.31
2023-05-06T06:30:33.720Z,96824.50
2023-05-06T06:31:35.905Z,96817.97
2023-05-06T06:32:48.378Z,96823.78
2023-05-06T06:33:50.222Z,96821.84
2023-05-06T06:34:51.739Z,96816.84
2023-05-06T06:35:53.282Z,96819.22
2023-05-06T06:36:54.859Z,96824.56
2023-05-06T06:37:56.429Z,96810.56
2023-05-06T06:38:57.967Z,96811.25
2023-05-06T06:39:59.491Z,96811.25
2023-05-06T06:41:01.026Z,96808.47
2023-05-06T06:42:06.961Z,96812.78
2023-05-06T06:43:08.606Z,96813.56
2023-05-06T06:44:10.144Z,96811.19
2023-05-06T06:45:13.476Z,96805.72
2023-05-06T06:46:15.131Z,96807.75
2023-05-06T06:47:16.843Z,96802.69
2023-05-06T06:48:19.293Z,96808.84
2023-05-06T06:49:20.965Z,96806.88
2023-05-06T06:50:22.519Z,96810.41
2023-05-06T06:51:24.047Z,96806.16
2023-05-06T06:52:25.650Z,96803.47
2023-05-06T06:53:27.183Z,96808.19
2023-05-06T06:54:28.695Z,96814.44
2023-05-06T06:55:30.394Z,96809.06
2023-05-06T06:56:31.961Z,96802.91
2023-05-06T06:57:33.546Z,96802.91
2023-05-06T06:58:35.108Z,96807.25
2023-05-06T06:59:36.684Z,96808.03
2023-05-06T07:00:38.556Z,96795.19
2023-05-06T07:01:42.075Z,96796.34
2023-05-06T07:02:43.763Z,96799.47
2023-05-06T07:03:45.350Z,96803.38
2023-05-06T07:04:47.034Z,96801.34
2023-05-06T07:05:49.362Z,96802.97
2023-05-06T07:06:51.295Z,96806.88
2023-05-06T07:07:53.239Z,96806.13
2023-05-06T07:08:54.764Z,96802.25
2023-05-06T07:09:57.740Z,96802.25
2023-05-06T07:10:59.646Z,96802.25
2023-05-06T07:12:01.896Z,96803.78
2023-05-06T07:13:03.712Z,96798.78
2023-05-06T07:14:05.394Z,96804.59
2023-05-06T07:15:07.573Z,96795.28
2023-05-06T07:16:09.433Z,96809.25
2023-05-06T07:17:11.220Z,96809.28
2023-05-06T07:18:13.027Z,96804.97
2023-05-06T07:19:14.709Z,96794.88
2023-05-06T07:20:16.378Z,96796.03
2023-05-06T07:21:17.975Z,96796.81
2023-05-06T07:22:19.560Z,96799.94
2023-05-06T07:23:21.181Z,96790.63
2023-05-06T07:24:23.087Z,96794.88
2023-05-06T07:25:25.594Z,96792.16
2023-05-06T07:26:27.396Z,96786.72
2023-05-06T07:27:30.793Z,96796.81
2023-05-06T07:28:32.377Z,96796.84
2023-05-06T07:29:36.563Z,96787.91
2023-05-06T07:30:38.996Z,96787.88
2023-05-06T07:31:40.558Z,96790.59
2023-05-06T07:32:43.428Z,96793.69
2023-05-06T07:33:44.997Z,96792.16
2023-05-06T07:34:46.520Z,96791.34
2023-05-06T07:35:48.049Z,96782.38
2023-05-06T07:36:50.565Z,96787.47
2023-05-06T07:37:52.630Z,96781.31
2023-05-06T07:38:54.390Z,96782.84
2023-05-06T07:39:57.505Z,96781.28
2023-05-06T07:40:59.092Z,96776.97
2023-05-06T07:42:01.895Z,96780.47
2023-05-06T07:43:03.719Z,96772.72
2023-05-06T07:44:06.145Z,96774.25
2023-05-06T07:45:08.282Z,96778.09
2023-05-06T07:46:10.244Z,96780.44
2023-05-06T07:47:11.924Z,96785.84
2023-05-06T07:48:13.519Z,96779.59
2023-05-06T07:49:15.148Z,96781.94
2023-05-06T07:50:16.888Z,96772.22
2023-05-06T07:51:19.359Z,96784.28
2023-05-06T07:52:21.067Z,96772.59
2023-05-06T07:53:22.849Z,96781.16
2023-05-06T07:54:24.409Z,96783.84
2023-05-06T07:55:26.396Z,96782.63
2023-05-06T07:56:27.952Z,96779.53
2023-05-06T07:57:29.634Z,96770.19
2023-05-06T07:58:32.025Z,96778.75
2023-05-06T07:59:33.599Z,96776.09
2023-05-06T08:00:35.155Z,96778.81
2023-05-06T08:01:36.763Z,96778.75
2023-05-06T08:02:39.483Z,96773.31
2023-05-06T08:03:41.127Z,96768.59
2023-05-06T08:04:43.204Z,96764.69
2023-05-06T08:05:44.976Z,96775.59
2023-05-06T08:06:46.539Z,96774.41
2023-05-06T08:07:50.145Z,96768.56
2023-05-06T08:08:51.750Z,96768.91
2023-05-06T08:09:53.299Z,96767.78
2023-05-06T08:10:58.874Z,96770.50
2023-05-06T08:12:00.438Z,96766.97
2023-05-06T08:13:02.049Z,96763.78
2023-05-06T08:14:03.629Z,96758.63
2023-05-06T08:15:05.769Z,96762.03
2023-05-06T08:16:07.817Z,96764.28
2023-05-06T08:17:09.456Z,96750.59
2023-05-06T08:18:21.664Z,96760.25
2023-05-06T08:19:24.690Z,96750.78
2023-05-06T08:20:26.252Z,96753.81
2023-05-06T08:21:27.864Z,96752.97
2023-05-06T08:22:29.494Z,96751.28
2023-05-06T08:23:32.167Z,96763.38
2023-05-06T08:24:33.721Z,96757.72
2023-05-06T08:25:35.333Z,96758.59
2023-05-06T08:26:37.007Z,96763.22
2023-05-06T08:27:38.661Z,96753.09
2023-05-06T08:28:40.349Z,96767.84
2023-05-06T08:29:41.910Z,96763.19
2023-05-06T08:30:44.751Z,96768.66
2023-05-06T08:31:47.292Z,96762.00
2023-05-06T08:32:48.970Z,96767.38
2023-05-06T08:33:53.891Z,96768.50
2023-05-06T08:34:56.138Z,96769.59
2023-05-06T08:35:58.895Z,96765.91
2023-05-06T08:37:01.199Z,96758.34
2023-05-06T08:38:02.990Z,96760.19
2023-05-06T08:39:04.615Z,96766.25
2023-05-06T08:40:19.479Z,96766.06
2023-05-06T08:41:21.969Z,96757.50
2023-05-06T08:42:25.585Z,96762.28
2023-05-06T08:43:28.794Z,96751.63
2023-05-06T08:44:30.573Z,96763.09
2023-05-06T08:45:33.051Z,96763.94
2023-05-06T08:46:34.814Z,96758.69
2023-05-06T08:47:36.454Z,96769.34
2023-05-06T08:48:38.595Z,96758.84
2023-05-06T08:49:40.139Z,96758.94
2023-05-06T08:50:43.372Z,96763.59
2023-05-06T08:51:45.127Z,96760.31
2023-05-06T08:52:47.953Z,96752.81
2023-05-06T08:53:51.736Z,96753.91
2023-05-06T08:54:57.982Z,96756.25
2023-05-06T08:56:08.791Z,96757.34
2023-05-06T08:57:12.925Z,96753.84
2023-05-06T08:58:16.900Z,96757.63
2023-05-06T08:59:22.994Z,96755.22
2023-05-06T09:00:24.820Z,96764.53
2023-05-06T09:01:28.088Z,96761.00
2023-05-06T09:02:29.861Z,96763.06
2023-05-06T09:03:31.805Z,96756.19
2023-05-06T09:04:34.176Z,96764.84
2023-05-06T09:05:36.080Z,96761.66
2023-05-06T09:06:37.717Z,96761.16
2023-05-06T09:07:39.301Z,96760.03
2023-05-06T09:08:41.077Z,96761.19
2023-05-06T09:09:42.586Z,96767.38
2023-05-06T09:10:45.412Z,96762.28
2023-05-06T09:11:54.039Z,96762.66
2023-05-06T09:12:56.922Z,96761.31
2023-05-06T09:14:13.307Z,96756.91
2023-05-06T09:15:14.829Z,96756.81
2023-05-06T09:16:29.777Z,96757.69
2023-05-06T09:17:32.727Z,96753.59
2023-05-06T09:18:37.222Z,96749.66
2023-05-06T09:19:38.741Z,96751.56
2023-05-06T09:20:44.852Z,96747.06
2023-05-06T09:21:49.379Z,96745.88
2023-05-06T09:22:51.686Z,96738.97
2023-05-06T09:23:53.409Z,96744.69
2023-05-06T09:24:58.023Z,96739.53
2023-05-06T09:26:01.752Z,96733.03
2023-05-06T09:27:04.004Z,96727.28
2023-05-06T09:28:11.291Z,96735.72
2023-05-06T09:29:13.256Z,96733.00
2023-05-06T09:30:15.232Z,96737.22
2023-05-06T09:31:16.962Z,96735.38
2023-05-06T09:32:18.742Z,96738.91
2023-05-06T09:33:21.728Z,96727.75
2023-05-06T09:34:24.642Z,96731.94
2023-05-06T09:35:29.227Z,96733.25
2023-05-06T09:36:31.527Z,96728.91
2023-05-06T09:37:33.110Z,96727.56
2023-05-06T09:38:34.684Z,96721.94
2023-05-06T09:39:36.344Z,96727.31
2023-05-06T09:40:39.062Z,96726.03
2023-05-06T09:41:40.809Z,96723.22
2023-05-06T09:42:43.791Z,96721.84
2023-05-06T09:43:46.232Z,96717.38
2023-05-06T09:44:48.006Z,96718.34
2023-05-06T09:45:49.658Z,96713.53
2023-05-06T09:46:51.302Z,96723.50
2023-05-06T09:47:53.966Z,96727.31
2023-05-06T09:48:57.536Z,96723.50
2023-05-06T09:50:02.298Z,96721.41
2023-05-06T09:51:05.066Z,96720.03
2023-05-06T09:52:07.478Z,96719.44
2023-05-06T09:53:11.764Z,96717.19
2023-05-06T09:54:15.559Z,96716.81
2023-05-06T09:55:19.554Z,96716.97
2023-05-06T09:56:21.566Z,96727.78
2023-05-06T09:57:23.885Z,96721.13
2023-05-06T09:58:26.493Z,96715.81
2023-05-06T09:59:29.402Z,96717.78
2023-05-06T10:00:32.429Z,96708.56
2023-05-06T10:01:37.656Z,96720.41
2023-05-06T10:02:44.812Z,96710.78
2023-05-06T10:03:48.283Z,96712.44
2023-05-06T10:04:50.482Z,96710.06
2023-05-06T10:05:54.562Z,96715.19
2023-05-06T10:06:56.742Z,96710.78
2023-05-06T10:07:59.309Z,96705.31
2023-05-06T10:09:01.884Z,96699.31
2023-05-06T10:10:04.593Z,96705.50
2023-05-06T10:11:07.000Z,96703.75
2023-05-06T10:12:09.550Z,96699.13
2023-05-06T10:13:12.170Z,96706.84
2023-05-06T10:14:14.438Z,96698.97
2023-05-06T10:15:16.261Z,96698.03
2023-05-06T10:16:19.266Z,96704.25
2023-05-06T10:17:24.689Z,96695.69
2023-05-06T10:18:29.845Z,96705.13
2023-05-06T10:19:33.183Z,96704.13
2023-05-06T10:20:36.096Z,96702.34
2023-05-06T10:21:44.893Z,96691.91
2023-05-06T10:23:07.710Z,96694.47
2023-05-06T10:24:13.419Z,96693.84
2023-05-06T10:25:30.058Z,96691.34
2023-05-06T10:26:36.184Z,96690.78
2023-05-06T10:27:41.779Z,96692.47
2023-05-06T10:28:46.813Z,96686.00
2023-05-06T10:29:49.006Z,96695.19
2023-05-06T10:30:52.098Z,96689.84
2023-05-06T10:31:55.673Z,96689.38
2023-05-06T10:33:03.544Z,96685.72
2023-05-06T10:34:07.710Z,96680.66
2023-05-06T10:35:15.028Z,96677.50
2023-05-06T10:36:22.687Z,96683.47
2023-05-06T10:37:28.654Z,96686.78
2023-05-06T10:38:36.229Z,96681.84
2023-05-06T10:39:39.261Z,96680.75
2023-05-06T10:40:43.474Z,96688.88
2023-05-06T10:41:45.435Z,96681.50
2023-05-06T10:42:47.024Z,96685.72
2023-05-06T10:43:49.895Z,96686.41
2023-05-06T10:45:01.793Z,96685.22
2023-05-06T10:46:16.607Z,96682.47
2023-05-06T10:47:18.227Z,96688.34
2023-05-06T10:48:19.785Z,96683.91
2023-05-06T10:49:21.414Z,96681.34
2023-05-06T10:50:24.509Z,96684.44
2023-05-06T10:51:28.310Z,96689.41
2023-05-06T10:52:44.435Z,96678.63
2023-05-06T10:54:04.313Z,96678.63
2023-05-06T10:55:42.539Z,96675.19
2023-05-06T10:56:47.023Z,96676.84
2023-05-06T10:57:49.320Z,96669.28
2023-05-06T10:58:51.682Z,96675.88
2023-05-06T10:59:55.534Z,96669.03
2023-05-06T11:00:58.036Z,96663.69
2023-05-06T11:02:02.725Z,96667.91
2023-05-06T11:03:10.293Z,96675.06
2023-05-06T11:04:13.958Z,96673.16
2023-05-06T11:05:15.949Z,96676.31
2023-05-06T11:06:42.650Z,96682.66
2023-05-06T11:07:44.272Z,96673.16
2023-05-06T11:08:57.210Z,96676.19
2023-05-06T11:10:00.901Z,96681.84
2023-05-06T11:11:30.814Z,96674.34
2023-05-06T11:12:52.524Z,96678.84
2023-05-06T11:13:54.340Z,96678.22
2023-05-06T11:15:19.454Z,96680.47
2023-05-06T11:16:50.074Z,96679.09
2023-05-06T11:17:53.828Z,96680.06
2023-05-06T11:18:55.803Z,96672.97
2023-05-06T11:20:19.861Z,96680.78
2023-05-06T11:21:21.375Z,96679.34
2023-05-06T11:22:40.242Z,96680.81
2023-05-06T11:23:46.642Z,96673.78
2023-05-06T11:24:48.248Z,96666.06
2023-05-06T11:25:51.290Z,96686.78
2023-05-06T11:26:53.969Z,96678.56
2023-05-06T11:27:56.204Z,96676.09
2023-05-06T11:29:02.200Z,96683.06
2023-05-06T11:30:05.330Z,96673.66
2023-05-06T11:31:08.240Z,96677.06
2023-05-06T11:32:23.620Z,96669.63
2023-05-06T11:33:30.797Z,96675.19
2023-05-06T11:34:33.082Z,96681.50
2023-05-06T11:35:38.143Z,96681.72
2023-05-06T11:36:47.024Z,96677.00
2023-05-06T11:37:48.555Z,96671.75
2023-05-06T11:38:52.419Z,96683.69
2023-05-06T11:39:54.202Z,96680.50
2023-05-06T11:40:55.751Z,96673.44
2023-05-06T11:42:03.918Z,96685.66
2023-05-06T11:43:12.548Z,96677.44
2023-05-06T11:44:27.678Z,96676.38
2023-05-06T11:45:41.102Z,96682.22
2023-05-06T11:46:43.866Z,96675.38
2023-05-06T11:47:45.664Z,96680.44
2023-05-06T11:48:47.828Z,96675.81
2023-05-06T11:49:54.313Z,96674.00
2023-05-06T11:50:55.854Z,96670.41
2023-05-06T11:51:57.487Z,96676.56
2023-05-06T11:52:59.074Z,96678.63
2023-05-06T11:54:07.086Z,96679.91
2023-05-06T11:55:10.107Z,96677.50
2023-05-06T11:56:12.049Z,96681.94
2023-05-06T11:57:14.014Z,96677.66
2023-05-06T11:58:17.513Z,96678.44
2023-05-06T11:59:48.128Z,96678.06
2023-05-06T12:00:53.003Z,96673.28
2023-05-06T12:01:56.334Z,96675.53
2023-05-06T12:02:58.825Z,96678.69
2023-05-06T12:04:02.155Z,96676.47
2023-05-06T12:05:04.217Z,96681.13
2023-05-06T12:06:06.101Z,96677.19
2023-05-06T12:07:09.747Z,96672.34
2023-05-06T12:08:20.032Z,96672.09
2023-05-06T12:09:28.763Z,96672.94
2023-05-06T12:10:30.331Z,96665.28
2023-05-06T12:11:33.759Z,96663.94
2023-05-06T12:12:35.552Z,96669.41
2023-05-06T12:13:37.799Z,96657.88
2023-05-06T12:14:40.214Z,96661.19
2023-05-06T12:15:42.745Z,96660.53
2023-05-06T12:16:44.628Z,96663.84
2023-05-06T12:17:46.478Z,96658.91
2023-05-06T12:18:48.370Z,96665.84
2023-05-06T12:19:50.512Z,96654.09
2023-05-06T12:20:56.249Z,96655.50
2023-05-06T12:22:14.959Z,96649.81
2023-05-06T12:23:16.919Z,96657.63